sensor_id;sensor_type;location;lat;lon;timestamp;P1;durP1;ratioP1;P2;durP2;ratioP2
23730;SDS011;12046;44.702;10.622;2023-05-10T00:00:12;4.60;;;4.20;;
23730;SDS011;12046;44.702;10.622;2023-05-10T00:03:29;5.40;;;4.60;;
23730;SDS011;12046;44.702;10.622;2023-05-10T00:06:10;6.18;;;4.15;;
23730;SDS011;12046;44.702;10.622;2023-05-10T00:09:05;4.65;;;4.25;;
23730;SDS011;12046;44.702;10.622;2023-05-10T00:17:18;6.63;;;5.15;;
23730;SDS011;12046;44.702;10.622;2023-05-10T00:20:48;5.72;;;5.05;;
23730;SDS011;12046;44.702;10.622;2023-05-10T00:23:57;6.90;;;4.53;;
23730;SDS011;12046;44.702;10.622;2023-05-10T00:32:52;5.82;;;5.20;;
23730;SDS011;12046;44.702;10.622;2023-05-10T00:35:23;5.30;;;4.90;;
23730;SDS011;12046;44.702;10.622;2023-05-10T00:38:34;6.93;;;4.95;;
23730;SDS011;12046;44.702;10.622;2023-05-10T00:41:00;6.85;;;5.13;;
23730;SDS011;12046;44.702;10.622;2023-05-10T00:43:26;7.13;;;5.43;;
23730;SDS011;12046;44.702;10.622;2023-05-10T00:45:52;7.53;;;5.50;;
23730;SDS011;12046;44.702;10.622;2023-05-10T00:48:18;6.28;;;5.60;;
23730;SDS011;12046;44.702;10.622;2023-05-10T00:50:44;5.72;;;5.13;;
23730;SDS011;12046;44.702;10.622;2023-05-10T00:53:11;6.60;;;5.45;;
23730;SDS011;12046;44.702;10.622;2023-05-10T00:55:37;6.93;;;5.25;;
23730;SDS011;12046;44.702;10.622;2023-05-10T00:58:03;7.13;;;4.93;;
23730;SDS011;12046;44.702;10.622;2023-05-10T01:00:29;5.40;;;4.90;;
23730;SDS011;12046;44.702;10.622;2023-05-10T01:02:57;5.93;;;4.72;;
23730;SDS011;12046;44.702;10.622;2023-05-10T01:05:23;6.72;;;5.60;;
23730;SDS011;12046;44.702;10.622;2023-05-10T01:07:49;10.27;;;6.78;;
23730;SDS011;12046;44.702;10.622;2023-05-10T01:10:15;6.53;;;5.93;;
23730;SDS011;12046;44.702;10.622;2023-05-10T01:12:42;6.63;;;5.82;;
23730;SDS011;12046;44.702;10.622;2023-05-10T01:15:11;6.65;;;5.43;;
23730;SDS011;12046;44.702;10.622;2023-05-10T01:17:38;7.30;;;5.63;;
23730;SDS011;12046;44.702;10.622;2023-05-10T01:20:06;6.97;;;6.28;;
23730;SDS011;12046;44.702;10.622;2023-05-10T01:28:41;6.05;;;5.45;;
23730;SDS011;12046;44.702;10.622;2023-05-10T01:31:28;6.60;;;5.80;;
23730;SDS011;12046;44.702;10.622;2023-05-10T01:34:16;6.70;;;6.03;;
23730;SDS011;12046;44.702;10.622;2023-05-10T01:37:02;7.20;;;6.50;;
23730;SDS011;12046;44.702;10.622;2023-05-10T01:39:45;7.07;;;6.38;;
23730;SDS011;12046;44.702;10.622;2023-05-10T01:42:16;6.55;;;5.95;;
23730;SDS011;12046;44.702;10.622;2023-05-10T01:47:35;6.90;;;6.30;;
23730;SDS011;12046;44.702;10.622;2023-05-10T01:52:40;7.63;;;6.10;;
23730;SDS011;12046;44.702;10.622;2023-05-10T01:55:09;6.13;;;5.53;;
23730;SDS011;12046;44.702;10.622;2023-05-10T01:57:42;6.18;;;5.32;;
23730;SDS011;12046;44.702;10.622;2023-05-10T02:00:10;6.53;;;5.85;;
23730;SDS011;12046;44.702;10.622;2023-05-10T02:02:37;5.68;;;5.10;;
23730;SDS011;12046;44.702;10.622;2023-05-10T02:05:07;6.13;;;5.55;;
23730;SDS011;12046;44.702;10.622;2023-05-10T02:07:35;7.07;;;5.18;;
23730;SDS011;12046;44.702;10.622;2023-05-10T02:10:02;5.50;;;5.00;;
23730;SDS011;12046;44.702;10.622;2023-05-10T02:12:31;5.75;;;4.90;;
23730;SDS011;12046;44.702;10.622;2023-05-10T02:15:02;5.93;;;4.88;;
23730;SDS011;12046;44.702;10.622;2023-05-10T02:17:30;5.50;;;5.00;;
23730;SDS011;12046;44.702;10.622;2023-05-10T02:19:58;5.47;;;4.97;;
23730;SDS011;12046;44.702;10.622;2023-05-10T02:22:25;5.55;;;5.00;;
23730;SDS011;12046;44.702;10.622;2023-05-10T02:24:56;6.00;;;5.05;;
23730;SDS011;12046;44.702;10.622;2023-05-10T02:27:24;6.70;;;5.22;;
23730;SDS011;12046;44.702;10.622;2023-05-10T02:29:52;4.68;;;4.28;;
23730;SDS011;12046;44.702;10.622;2023-05-10T02:32:20;4.90;;;4.50;;
23730;SDS011;12046;44.702;10.622;2023-05-10T02:34:47;5.25;;;4.15;;
23730;SDS011;12046;44.702;10.622;2023-05-10T02:37:18;4.75;;;4.10;;
23730;SDS011;12046;44.702;10.622;2023-05-10T02:39:52;5.10;;;4.43;;
23730;SDS011;12046;44.702;10.622;2023-05-10T02:42:22;4.55;;;4.05;;
23730;SDS011;12046;44.702;10.622;2023-05-10T02:44:52;4.72;;;4.30;;
23730;SDS011;12046;44.702;10.622;2023-05-10T02:47:24;3.80;;;3.50;;
23730;SDS011;12046;44.702;10.622;2023-05-10T02:49:50;3.90;;;3.60;;
23730;SDS011;12046;44.702;10.622;2023-05-10T02:52:19;5.00;;;4.00;;
23730;SDS011;12046;44.702;10.622;2023-05-10T02:54:50;4.10;;;3.80;;
23730;SDS011;12046;44.702;10.622;2023-05-10T02:57:22;4.25;;;3.85;;
23730;SDS011;12046;44.702;10.622;2023-05-10T02:59:52;4.57;;;4.20;;
23730;SDS011;12046;44.702;10.622;2023-05-10T03:02:20;4.43;;;4.03;;
23730;SDS011;12046;44.702;10.622;2023-05-10T03:04:46;5.07;;;4.68;;
23730;SDS011;12046;44.702;10.622;2023-05-10T03:07:11;5.15;;;4.15;;
23730;SDS011;12046;44.702;10.622;2023-05-10T03:09:38;5.25;;;4.75;;
23730;SDS011;12046;44.702;10.622;2023-05-10T03:12:11;5.85;;;4.70;;
23730;SDS011;12046;44.702;10.622;2023-05-10T03:17:30;5.93;;;4.72;;
23730;SDS011;12046;44.702;10.622;2023-05-10T03:20:59;5.80;;;4.60;;
23730;SDS011;12046;44.702;10.622;2023-05-10T03:23:11;4.95;;;4.55;;
23730;SDS011;12046;44.702;10.622;2023-05-10T03:25:59;4.80;;;4.40;;
23730;SDS011;12046;44.702;10.622;2023-05-10T03:28:25;5.55;;;5.05;;
23730;SDS011;12046;44.702;10.622;2023-05-10T03:30:53;5.65;;;5.00;;
23730;SDS011;12046;44.702;10.622;2023-05-10T03:33:19;6.30;;;4.90;;
23730;SDS011;12046;44.702;10.622;2023-05-10T03:35:45;5.38;;;4.75;;
23730;SDS011;12046;44.702;10.622;2023-05-10T03:38:12;6.95;;;5.40;;
23730;SDS011;12046;44.702;10.622;2023-05-10T03:40:38;5.75;;;5.18;;
23730;SDS011;12046;44.702;10.622;2023-05-10T03:43:04;7.93;;;5.03;;
23730;SDS011;12046;44.702;10.622;2023-05-10T03:45:30;6.05;;;5.45;;
23730;SDS011;12046;44.702;10.622;2023-05-10T03:47:56;4.90;;;4.50;;
23730;SDS011;12046;44.702;10.622;2023-05-10T03:50:23;7.90;;;5.53;;
23730;SDS011;12046;44.702;10.622;2023-05-10T03:52:49;5.63;;;5.15;;
23730;SDS011;12046;44.702;10.622;2023-05-10T03:55:15;6.28;;;5.40;;
23730;SDS011;12046;44.702;10.622;2023-05-10T03:57:41;5.25;;;4.75;;
23730;SDS011;12046;44.702;10.622;2023-05-10T04:00:08;5.35;;;4.85;;
23730;SDS011;12046;44.702;10.622;2023-05-10T04:02:34;6.75;;;5.60;;
23730;SDS011;12046;44.702;10.622;2023-05-10T04:05:00;5.90;;;5.35;;
23730;SDS011;12046;44.702;10.622;2023-05-10T04:07:26;5.72;;;4.95;;
23730;SDS011;12046;44.702;10.622;2023-05-10T04:09:52;5.65;;;5.15;;
23730;SDS011;12046;44.702;10.622;2023-05-10T04:12:18;5.95;;;5.35;;
23730;SDS011;12046;44.702;10.622;2023-05-10T04:14:44;5.53;;;5.03;;
23730;SDS011;12046;44.702;10.622;2023-05-10T04:17:10;5.35;;;4.60;;
23730;SDS011;12046;44.702;10.622;2023-05-10T04:19:36;5.63;;;4.90;;
23730;SDS011;12046;44.702;10.622;2023-05-10T04:22:02;6.03;;;4.88;;
23730;SDS011;12046;44.702;10.622;2023-05-10T04:24:28;5.75;;;5.15;;
23730;SDS011;12046;44.702;10.622;2023-05-10T04:26:54;6.25;;;4.63;;
23730;SDS011;12046;44.702;10.622;2023-05-10T04:29:20;5.55;;;4.95;;
23730;SDS011;12046;44.702;10.622;2023-05-10T04:31:46;6.38;;;5.45;;
23730;SDS011;12046;44.702;10.622;2023-05-10T04:34:12;4.82;;;4.43;;
23730;SDS011;12046;44.702;10.622;2023-05-10T04:36:38;5.15;;;4.65;;
23730;SDS011;12046;44.702;10.622;2023-05-10T04:39:04;5.07;;;4.63;;
23730;SDS011;12046;44.702;10.622;2023-05-10T04:41:30;6.05;;;5.45;;
23730;SDS011;12046;44.702;10.622;2023-05-10T04:43:55;6.05;;;5.22;;
23730;SDS011;12046;44.702;10.622;2023-05-10T04:46:21;5.40;;;4.90;;
23730;SDS011;12046;44.702;10.622;2023-05-10T04:48:47;6.15;;;5.32;;
23730;SDS011;12046;44.702;10.622;2023-05-10T04:51:13;5.85;;;5.25;;
23730;SDS011;12046;44.702;10.622;2023-05-10T04:53:42;5.35;;;4.85;;
23730;SDS011;12046;44.702;10.622;2023-05-10T04:56:16;5.35;;;4.95;;
23730;SDS011;12046;44.702;10.622;2023-05-10T04:58:42;6.00;;;4.63;;
23730;SDS011;12046;44.702;10.622;2023-05-10T05:01:08;5.85;;;4.65;;
23730;SDS011;12046;44.702;10.622;2023-05-10T05:03:35;5.80;;;4.50;;
23730;SDS011;12046;44.702;10.622;2023-05-10T05:06:02;4.53;;;4.13;;
23730;SDS011;12046;44.702;10.622;2023-05-10T05:08:28;4.70;;;4.30;;
23730;SDS011;12046;44.702;10.622;2023-05-10T05:10:54;5.70;;;4.38;;
23730;SDS011;12046;44.702;10.622;2023-05-10T05:13:20;4.40;;;4.10;;
23730;SDS011;12046;44.702;10.622;2023-05-10T05:15:45;5.13;;;4.45;;
23730;SDS011;12046;44.702;10.622;2023-05-10T05:18:11;5.55;;;4.50;;
23730;SDS011;12046;44.702;10.622;2023-05-10T05:20:37;4.40;;;4.00;;
23730;SDS011;12046;44.702;10.622;2023-05-10T05:23:06;4.60;;;4.20;;
23730;SDS011;12046;44.702;10.622;2023-05-10T05:25:39;4.05;;;3.70;;
23730;SDS011;12046;44.702;10.622;2023-05-10T05:28:05;4.20;;;3.80;;
23730;SDS011;12046;44.702;10.622;2023-05-10T05:30:30;4.15;;;3.78;;
23730;SDS011;12046;44.702;10.622;2023-05-10T05:32:56;4.53;;;3.60;;
23730;SDS011;12046;44.702;10.622;2023-05-10T05:35:23;3.67;;;3.40;;
23730;SDS011;12046;44.702;10.622;2023-05-10T05:37:49;5.22;;;3.60;;
23730;SDS011;12046;44.702;10.622;2023-05-10T05:40:15;4.18;;;3.58;;
23730;SDS011;12046;44.702;10.622;2023-05-10T05:42:41;3.67;;;3.38;;
23730;SDS011;12046;44.702;10.622;2023-05-10T05:45:07;3.60;;;3.30;;
23730;SDS011;12046;44.702;10.622;2023-05-10T05:47:33;3.50;;;3.20;;
23730;SDS011;12046;44.702;10.622;2023-05-10T05:49:59;4.07;;;3.65;;
23730;SDS011;12046;44.702;10.622;2023-05-10T05:52:25;3.95;;;3.58;;
23730;SDS011;12046;44.702;10.622;2023-05-10T05:54:51;6.85;;;3.80;;
23730;SDS011;12046;44.702;10.622;2023-05-10T05:57:17;4.32;;;3.90;;
23730;SDS011;12046;44.702;10.622;2023-05-10T05:59:43;3.78;;;3.30;;
23730;SDS011;12046;44.702;10.622;2023-05-10T06:02:09;4.13;;;3.70;;
23730;SDS011;12046;44.702;10.622;2023-05-10T06:04:35;4.13;;;3.72;;
23730;SDS011;12046;44.702;10.622;2023-05-10T06:07:01;3.65;;;3.35;;
23730;SDS011;12046;44.702;10.622;2023-05-10T06:09:30;4.63;;;3.70;;
23730;SDS011;12046;44.702;10.622;2023-05-10T06:11:55;4.15;;;3.75;;
23730;SDS011;12046;44.702;10.622;2023-05-10T06:14:22;4.60;;;3.60;;
23730;SDS011;12046;44.702;10.622;2023-05-10T06:16:48;4.38;;;3.92;;
23730;SDS011;12046;44.702;10.622;2023-05-10T06:19:14;3.72;;;3.42;;
23730;SDS011;12046;44.702;10.622;2023-05-10T06:21:39;4.05;;;3.65;;
23730;SDS011;12046;44.702;10.622;2023-05-10T06:24:05;6.65;;;4.13;;
23730;SDS011;12046;44.702;10.622;2023-05-10T06:26:31;3.75;;;3.42;;
23730;SDS011;12046;44.702;10.622;2023-05-10T06:28:58;4.68;;;4.13;;
23730;SDS011;12046;44.702;10.622;2023-05-10T06:31:23;5.80;;;3.70;;
23730;SDS011;12046;44.702;10.622;2023-05-10T06:33:49;4.43;;;4.03;;
23730;SDS011;12046;44.702;10.622;2023-05-10T06:36:15;3.88;;;3.47;;
23730;SDS011;12046;44.702;10.622;2023-05-10T06:38:44;5.60;;;3.72;;
23730;SDS011;12046;44.702;10.622;2023-05-10T06:41:22;4.22;;;3.83;;
23730;SDS011;12046;44.702;10.622;2023-05-10T06:43:48;4.93;;;3.55;;
23730;SDS011;12046;44.702;10.622;2023-05-10T06:46:14;4.13;;;3.72;;
23730;SDS011;12046;44.702;10.622;2023-05-10T06:48:40;5.35;;;3.53;;
23730;SDS011;12046;44.702;10.622;2023-05-10T06:51:08;6.55;;;3.90;;
23730;SDS011;12046;44.702;10.622;2023-05-10T06:53:34;4.15;;;3.75;;
23730;SDS011;12046;44.702;10.622;2023-05-10T06:56:00;6.78;;;3.53;;
23730;SDS011;12046;44.702;10.622;2023-05-10T06:58:33;5.47;;;4.13;;
23730;SDS011;12046;44.702;10.622;2023-05-10T07:01:02;4.47;;;4.07;;
23730;SDS011;12046;44.702;10.622;2023-05-10T07:03:30;5.60;;;4.50;;
23730;SDS011;12046;44.702;10.622;2023-05-10T07:06:00;5.10;;;4.60;;
23730;SDS011;12046;44.702;10.622;2023-05-10T07:08:33;5.83;;;4.67;;
23730;SDS011;12046;44.702;10.622;2023-05-10T07:11:07;4.55;;;4.10;;
23730;SDS011;12046;44.702;10.622;2023-05-10T07:13:33;4.47;;;4.07;;
23730;SDS011;12046;44.702;10.622;2023-05-10T07:15:59;4.70;;;4.30;;
23730;SDS011;12046;44.702;10.622;2023-05-10T07:18:27;5.88;;;4.38;;
23730;SDS011;12046;44.702;10.622;2023-05-10T07:20:53;5.85;;;5.35;;
23730;SDS011;12046;44.702;10.622;2023-05-10T07:23:20;4.82;;;4.32;;
23730;SDS011;12046;44.702;10.622;2023-05-10T07:25:46;5.85;;;4.75;;
23730;SDS011;12046;44.702;10.622;2023-05-10T07:28:13;5.18;;;4.68;;
23730;SDS011;12046;44.702;10.622;2023-05-10T07:30:42;4.22;;;3.92;;
23730;SDS011;12046;44.702;10.622;2023-05-10T07:33:14;4.45;;;4.05;;
23730;SDS011;12046;44.702;10.622;2023-05-10T07:35:40;5.85;;;4.43;;
23730;SDS011;12046;44.702;10.622;2023-05-10T07:38:06;4.28;;;3.88;;
23730;SDS011;12046;44.702;10.622;2023-05-10T07:40:38;4.07;;;3.75;;
23730;SDS011;12046;44.702;10.622;2023-05-10T07:43:04;4.18;;;3.78;;
23730;SDS011;12046;44.702;10.622;2023-05-10T07:45:30;5.05;;;4.50;;
23730;SDS011;12046;44.702;10.622;2023-05-10T07:47:56;4.40;;;4.00;;
23730;SDS011;12046;44.702;10.622;2023-05-10T07:50:22;5.38;;;4.15;;
23730;SDS011;12046;44.702;10.622;2023-05-10T07:52:48;4.55;;;4.15;;
23730;SDS011;12046;44.702;10.622;2023-05-10T07:55:13;4.00;;;3.70;;
23730;SDS011;12046;44.702;10.622;2023-05-10T07:57:39;4.70;;;4.28;;
23730;SDS011;12046;44.702;10.622;2023-05-10T08:00:06;4.70;;;4.30;;
23730;SDS011;12046;44.702;10.622;2023-05-10T08:02:33;6.68;;;4.40;;
23730;SDS011;12046;44.702;10.622;2023-05-10T08:05:00;5.00;;;4.50;;
23730;SDS011;12046;44.702;10.622;2023-05-10T08:07:25;5.80;;;5.03;;
23730;SDS011;12046;44.702;10.622;2023-05-10T08:09:51;5.82;;;5.32;;
23730;SDS011;12046;44.702;10.622;2023-05-10T08:12:17;6.82;;;4.82;;
23730;SDS011;12046;44.702;10.622;2023-05-10T08:14:43;4.97;;;4.57;;
23730;SDS011;12046;44.702;10.622;2023-05-10T08:17:09;4.82;;;4.35;;
23730;SDS011;12046;44.702;10.622;2023-05-10T08:19:34;6.68;;;5.15;;
23730;SDS011;12046;44.702;10.622;2023-05-10T08:22:03;5.85;;;4.90;;
23730;SDS011;12046;44.702;10.622;2023-05-10T08:24:29;7.22;;;5.38;;
23730;SDS011;12046;44.702;10.622;2023-05-10T08:26:54;8.35;;;4.78;;
23730;SDS011;12046;44.702;10.622;2023-05-10T08:29:20;7.63;;;4.65;;
23730;SDS011;12046;44.702;10.622;2023-05-10T08:31:46;7.20;;;5.13;;
23730;SDS011;12046;44.702;10.622;2023-05-10T08:34:13;5.00;;;4.50;;
23730;SDS011;12046;44.702;10.622;2023-05-10T08:36:40;5.32;;;4.40;;
23730;SDS011;12046;44.702;10.622;2023-05-10T08:39:05;5.38;;;4.45;;
23730;SDS011;12046;44.702;10.622;2023-05-10T08:41:35;5.22;;;4.22;;
23730;SDS011;12046;44.702;10.622;2023-05-10T08:44:04;4.50;;;4.10;;
23730;SDS011;12046;44.702;10.622;2023-05-10T08:46:33;5.72;;;4.45;;
23730;SDS011;12046;44.702;10.622;2023-05-10T08:49:03;7.63;;;4.53;;
23730;SDS011;12046;44.702;10.622;2023-05-10T08:51:31;7.30;;;4.70;;
23730;SDS011;12046;44.702;10.622;2023-05-10T08:54:05;6.68;;;4.35;;
23730;SDS011;12046;44.702;10.622;2023-05-10T08:56:31;4.72;;;4.22;;
23730;SDS011;12046;44.702;10.622;2023-05-10T08:58:57;5.65;;;4.35;;
23730;SDS011;12046;44.702;10.622;2023-05-10T09:01:23;6.05;;;4.60;;
23730;SDS011;12046;44.702;10.622;2023-05-10T09:03:53;5.00;;;4.47;;
23730;SDS011;12046;44.702;10.622;2023-05-10T09:06:19;9.05;;;4.65;;
23730;SDS011;12046;44.702;10.622;2023-05-10T09:08:51;4.55;;;4.15;;
23730;SDS011;12046;44.702;10.622;2023-05-10T09:11:17;4.78;;;4.32;;
23730;SDS011;12046;44.702;10.622;2023-05-10T09:13:45;5.40;;;4.90;;
23730;SDS011;12046;44.702;10.622;2023-05-10T09:16:15;5.47;;;4.60;;
23730;SDS011;12046;44.702;10.622;2023-05-10T09:18:41;5.22;;;4.70;;
23730;SDS011;12046;44.702;10.622;2023-05-10T09:21:10;5.13;;;4.57;;
23730;SDS011;12046;44.702;10.622;2023-05-10T09:23:42;5.53;;;5.03;;
23730;SDS011;12046;44.702;10.622;2023-05-10T09:26:08;5.85;;;4.53;;
23730;SDS011;12046;44.702;10.622;2023-05-10T09:28:56;5.82;;;5.25;;
23730;SDS011;12046;44.702;10.622;2023-05-10T09:31:23;5.75;;;4.85;;
23730;SDS011;12046;44.702;10.622;2023-05-10T09:33:52;5.45;;;4.93;;
23730;SDS011;12046;44.702;10.622;2023-05-10T09:36:18;5.50;;;4.30;;
23730;SDS011;12046;44.702;10.622;2023-05-10T09:38:48;4.63;;;3.95;;
23730;SDS011;12046;44.702;10.622;2023-05-10T09:41:15;5.10;;;4.50;;
23730;SDS011;12046;44.702;10.622;2023-05-10T09:43:46;6.60;;;4.57;;
23730;SDS011;12046;44.702;10.622;2023-05-10T09:46:12;5.38;;;4.40;;
23730;SDS011;12046;44.702;10.622;2023-05-10T09:48:42;5.20;;;4.70;;
23730;SDS011;12046;44.702;10.622;2023-05-10T09:51:09;4.90;;;4.40;;
23730;SDS011;12046;44.702;10.622;2023-05-10T09:53:36;4.40;;;4.00;;
23730;SDS011;12046;44.702;10.622;2023-05-10T09:56:01;4.75;;;4.13;;
23730;SDS011;12046;44.702;10.622;2023-05-10T09:58:27;5.22;;;4.55;;
23730;SDS011;12046;44.702;10.622;2023-05-10T10:00:53;4.30;;;3.80;;
23730;SDS011;12046;44.702;10.622;2023-05-10T10:03:20;5.05;;;3.97;;
23730;SDS011;12046;44.702;10.622;2023-05-10T10:05:48;4.05;;;3.75;;
23730;SDS011;12046;44.702;10.622;2023-05-10T10:08:14;5.18;;;4.47;;
23730;SDS011;12046;44.702;10.622;2023-05-10T10:10:40;4.32;;;3.92;;
23730;SDS011;12046;44.702;10.622;2023-05-10T10:13:06;4.57;;;3.97;;
23730;SDS011;12046;44.702;10.622;2023-05-10T10:15:33;4.75;;;4.32;;
23730;SDS011;12046;44.702;10.622;2023-05-10T10:17:59;7.93;;;3.90;;
23730;SDS011;12046;44.702;10.622;2023-05-10T10:20:26;5.38;;;3.63;;
23730;SDS011;12046;44.702;10.622;2023-05-10T10:22:52;3.95;;;3.63;;
23730;SDS011;12046;44.702;10.622;2023-05-10T10:25:19;5.00;;;4.50;;
23730;SDS011;12046;44.702;10.622;2023-05-10T10:30:28;4.88;;;4.05;;
23730;SDS011;12046;44.702;10.622;2023-05-10T10:35:58;5.22;;;3.88;;
23730;SDS011;12046;44.702;10.622;2023-05-10T10:38:35;4.22;;;3.80;;
23730;SDS011;12046;44.702;10.622;2023-05-10T10:47:33;3.97;;;3.55;;
23730;SDS011;12046;44.702;10.622;2023-05-10T10:49:48;3.75;;;3.45;;
23730;SDS011;12046;44.702;10.622;2023-05-10T10:52:32;4.60;;;3.65;;
23730;SDS011;12046;44.702;10.622;2023-05-10T11:00:22;3.83;;;3.53;;
23730;SDS011;12046;44.702;10.622;2023-05-10T11:03:13;3.72;;;3.42;;
23730;SDS011;12046;44.702;10.622;2023-05-10T11:08:12;3.60;;;3.30;;
23730;SDS011;12046;44.702;10.622;2023-05-10T11:10:48;3.90;;;3.60;;
23730;SDS011;12046;44.702;10.622;2023-05-10T11:13:40;3.42;;;3.13;;
23730;SDS011;12046;44.702;10.622;2023-05-10T11:16:11;5.05;;;4.43;;
23730;SDS011;12046;44.702;10.622;2023-05-10T11:18:52;5.90;;;5.30;;
23730;SDS011;12046;44.702;10.622;2023-05-10T11:21:31;4.60;;;3.72;;
23730;SDS011;12046;44.702;10.622;2023-05-10T11:23:58;4.00;;;3.58;;
23730;SDS011;12046;44.702;10.622;2023-05-10T11:26:30;4.10;;;3.70;;
23730;SDS011;12046;44.702;10.622;2023-05-10T11:28:56;4.03;;;3.38;;
23730;SDS011;12046;44.702;10.622;2023-05-10T11:31:24;3.45;;;3.20;;
23730;SDS011;12046;44.702;10.622;2023-05-10T11:33:52;3.60;;;3.30;;
23730;SDS011;12046;44.702;10.622;2023-05-10T11:36:20;3.13;;;2.90;;
23730;SDS011;12046;44.702;10.622;2023-05-10T11:38:48;3.80;;;3.50;;
23730;SDS011;12046;44.702;10.622;2023-05-10T11:41:18;3.78;;;3.30;;
23730;SDS011;12046;44.702;10.622;2023-05-10T11:43:46;3.35;;;3.05;;
23730;SDS011;12046;44.702;10.622;2023-05-10T11:46:14;2.95;;;2.72;;
23730;SDS011;12046;44.702;10.622;2023-05-10T11:48:43;2.88;;;2.67;;
23730;SDS011;12046;44.702;10.622;2023-05-10T11:51:12;7.03;;;3.30;;
23730;SDS011;12046;44.702;10.622;2023-05-10T11:53:41;3.00;;;2.70;;
23730;SDS011;12046;44.702;10.622;2023-05-10T11:56:07;3.00;;;2.70;;
23730;SDS011;12046;44.702;10.622;2023-05-10T11:58:34;3.25;;;2.88;;
23730;SDS011;12046;44.702;10.622;2023-05-10T12:01:04;3.42;;;3.05;;
23730;SDS011;12046;44.702;10.622;2023-05-10T12:03:31;3.30;;;2.90;;
23730;SDS011;12046;44.702;10.622;2023-05-10T12:05:58;4.15;;;3.13;;
23730;SDS011;12046;44.702;10.622;2023-05-10T12:08:25;3.17;;;2.88;;
23730;SDS011;12046;44.702;10.622;2023-05-10T12:10:52;3.22;;;3.03;;
23730;SDS011;12046;44.702;10.622;2023-05-10T12:13:19;3.08;;;2.78;;
23730;SDS011;12046;44.702;10.622;2023-05-10T12:15:52;3.45;;;3.15;;
23730;SDS011;12046;44.702;10.622;2023-05-10T12:18:22;3.15;;;2.90;;
23730;SDS011;12046;44.702;10.622;2023-05-10T12:20:49;2.95;;;2.65;;
23730;SDS011;12046;44.702;10.622;2023-05-10T12:23:18;2.95;;;2.75;;
23730;SDS011;12046;44.702;10.622;2023-05-10T12:25:45;3.08;;;2.78;;
23730;SDS011;12046;44.702;10.622;2023-05-10T12:28:18;3.40;;;3.20;;
23730;SDS011;12046;44.702;10.622;2023-05-10T12:30:45;3.45;;;3.15;;
23730;SDS011;12046;44.702;10.622;2023-05-10T12:33:14;3.28;;;2.97;;
23730;SDS011;12046;44.702;10.622;2023-05-10T12:35:48;2.85;;;2.58;;
23730;SDS011;12046;44.702;10.622;2023-05-10T12:41:02;3.33;;;2.88;;
23730;SDS011;12046;44.702;10.622;2023-05-10T12:43:38;3.42;;;3.10;;
23730;SDS011;12046;44.702;10.622;2023-05-10T12:46:14;3.22;;;3.00;;
23730;SDS011;12046;44.702;10.622;2023-05-10T12:48:42;4.72;;;3.08;;
23730;SDS011;12046;44.702;10.622;2023-05-10T12:51:08;3.33;;;3.05;;
23730;SDS011;12046;44.702;10.622;2023-05-10T12:53:36;3.25;;;2.97;;
23730;SDS011;12046;44.702;10.622;2023-05-10T12:56:03;3.33;;;3.03;;
23730;SDS011;12046;44.702;10.622;2023-05-10T12:58:29;3.70;;;3.00;;
23730;SDS011;12046;44.702;10.622;2023-05-10T13:00:54;2.88;;;2.67;;
23730;SDS011;12046;44.702;10.622;2023-05-10T13:03:21;4.10;;;3.22;;
23730;SDS011;12046;44.702;10.622;2023-05-10T13:05:47;3.40;;;3.10;;
23730;SDS011;12046;44.702;10.622;2023-05-10T13:08:13;4.13;;;3.72;;
23730;SDS011;12046;44.702;10.622;2023-05-10T13:10:39;3.80;;;3.50;;
23730;SDS011;12046;44.702;10.622;2023-05-10T13:13:05;3.42;;;3.22;;
23730;SDS011;12046;44.702;10.622;2023-05-10T13:15:32;4.03;;;3.63;;
23730;SDS011;12046;44.702;10.622;2023-05-10T13:18:10;5.75;;;3.80;;
23730;SDS011;12046;44.702;10.622;2023-05-10T13:20:39;3.40;;;3.13;;
23730;SDS011;12046;44.702;10.622;2023-05-10T13:23:05;7.30;;;6.60;;
23730;SDS011;12046;44.702;10.622;2023-05-10T13:25:30;6.15;;;4.13;;
23730;SDS011;12046;44.702;10.622;2023-05-10T13:27:56;6.03;;;3.85;;
23730;SDS011;12046;44.702;10.622;2023-05-10T13:30:22;4.53;;;4.13;;
23730;SDS011;12046;44.702;10.622;2023-05-10T13:32:51;4.35;;;3.97;;
23730;SDS011;12046;44.702;10.622;2023-05-10T13:35:17;4.72;;;4.13;;
23730;SDS011;12046;44.702;10.622;2023-05-10T13:37:46;4.95;;;4.55;;
23730;SDS011;12046;44.702;10.622;2023-05-10T13:40:15;4.97;;;4.57;;
23730;SDS011;12046;44.702;10.622;2023-05-10T13:42:43;4.57;;;4.18;;
23730;SDS011;12046;44.702;10.622;2023-05-10T13:45:12;4.78;;;4.07;;
23730;SDS011;12046;44.702;10.622;2023-05-10T13:47:38;9.25;;;4.00;;
23730;SDS011;12046;44.702;10.622;2023-05-10T13:50:04;4.97;;;3.55;;
23730;SDS011;12046;44.702;10.622;2023-05-10T13:52:36;3.55;;;3.25;;
23730;SDS011;12046;44.702;10.622;2023-05-10T13:55:02;4.35;;;4.00;;
23730;SDS011;12046;44.702;10.622;2023-05-10T13:57:28;5.20;;;3.95;;
23730;SDS011;12046;44.702;10.622;2023-05-10T13:59:55;3.78;;;3.47;;
23730;SDS011;12046;44.702;10.622;2023-05-10T14:02:22;3.78;;;3.47;;
23730;SDS011;12046;44.702;10.622;2023-05-10T14:04:52;3.78;;;3.47;;
23730;SDS011;12046;44.702;10.622;2023-05-10T14:07:49;3.63;;;3.33;;
23730;SDS011;12046;44.702;10.622;2023-05-10T14:10:44;4.25;;;3.85;;
23730;SDS011;12046;44.702;10.622;2023-05-10T14:13:10;4.97;;;3.40;;
23730;SDS011;12046;44.702;10.622;2023-05-10T14:15:54;4.07;;;3.38;;
23730;SDS011;12046;44.702;10.622;2023-05-10T14:18:26;3.50;;;3.20;;
23730;SDS011;12046;44.702;10.622;2023-05-10T14:21:02;3.13;;;2.83;;
23730;SDS011;12046;44.702;10.622;2023-05-10T14:23:29;3.20;;;3.00;;
23730;SDS011;12046;44.702;10.622;2023-05-10T14:26:01;3.40;;;3.10;;
23730;SDS011;12046;44.702;10.622;2023-05-10T14:28:27;3.47;;;3.17;;
23730;SDS011;12046;44.702;10.622;2023-05-10T14:30:53;3.20;;;2.92;;
23730;SDS011;12046;44.702;10.622;2023-05-10T14:33:19;4.10;;;3.78;;
23730;SDS011;12046;44.702;10.622;2023-05-10T14:35:46;3.90;;;3.15;;
23730;SDS011;12046;44.702;10.622;2023-05-10T14:38:12;3.42;;;3.13;;
23730;SDS011;12046;44.702;10.622;2023-05-10T14:40:39;3.20;;;3.00;;
23730;SDS011;12046;44.702;10.622;2023-05-10T14:43:05;2.92;;;2.72;;
23730;SDS011;12046;44.702;10.622;2023-05-10T14:45:30;3.22;;;3.03;;
23730;SDS011;12046;44.702;10.622;2023-05-10T14:47:57;3.28;;;3.03;;
23730;SDS011;12046;44.702;10.622;2023-05-10T14:50:23;3.53;;;3.22;;
23730;SDS011;12046;44.702;10.622;2023-05-10T14:52:49;3.72;;;3.20;;
23730;SDS011;12046;44.702;10.622;2023-05-10T14:55:17;3.70;;;3.40;;
23730;SDS011;12046;44.702;10.622;2023-05-10T14:57:43;3.42;;;3.13;;
23730;SDS011;12046;44.702;10.622;2023-05-10T15:00:11;3.50;;;3.13;;
23730;SDS011;12046;44.702;10.622;2023-05-10T15:02:43;3.30;;;3.05;;
23730;SDS011;12046;44.702;10.622;2023-05-10T15:05:09;3.53;;;3.22;;
23730;SDS011;12046;44.702;10.622;2023-05-10T15:07:35;4.45;;;3.60;;
23730;SDS011;12046;44.702;10.622;2023-05-10T15:10:00;3.65;;;3.35;;
23730;SDS011;12046;44.702;10.622;2023-05-10T15:12:29;4.43;;;4.10;;
23730;SDS011;12046;44.702;10.622;2023-05-10T15:14:54;4.20;;;3.90;;
23730;SDS011;12046;44.702;10.622;2023-05-10T15:17:20;4.82;;;4.40;;
23730;SDS011;12046;44.702;10.622;2023-05-10T15:19:46;4.20;;;3.80;;
23730;SDS011;12046;44.702;10.622;2023-05-10T15:22:12;5.13;;;4.40;;
23730;SDS011;12046;44.702;10.622;2023-05-10T15:24:37;4.55;;;4.13;;
23730;SDS011;12046;44.702;10.622;2023-05-10T15:27:03;4.28;;;3.97;;
23730;SDS011;12046;44.702;10.622;2023-05-10T15:29:29;4.45;;;4.07;;
23730;SDS011;12046;44.702;10.622;2023-05-10T15:31:56;5.05;;;3.92;;